Time;durP1;ratioP1;P1;durP2;ratioP2;P2;SDS_P1;SDS_P2;PMS_P1;PMS_P2;Temp;Humidity;BMP_temperature;BMP_pressure;BME280_temperature;BME280_humidity;BME280_pressure;Samples;Min_cycle;Max_cycle;Signal;HPM_P1;HPM_P2
2024/01/20 00:00:06;;;;;;;5.40;4.97;;;;;;;;;;5014954;28;20210;-84
2024/01/20 00:02:33;;;;;;;6.03;5.40;;;;;;;;;;5016037;28;20207;-86
2024/01/20 00:05:00;;;;;;;8.87;5.10;;;;;;;;;;5016095;28;20215;-87
2024/01/20 00:07:28;;;;;;;10.17;6.00;;;;;;;;;;5015329;28;20231;-87
2024/01/20 00:09:55;;;;;;;9.20;6.13;;;;;;;;;;5015842;28;20650;-87
2024/01/20 00:12:22;;;;;;;14.07;5.80;;;;;;;;;;5015067;28;20235;-87
2024/01/20 00:14:49;;;;;;;5.33;4.83;;;;;;;;;;5016170;28;20211;-87
2024/01/20 00:17:16;;;;;;;6.33;5.73;;;;;;;;;;5015064;28;20231;-87
2024/01/20 00:19:44;;;;;;;7.23;5.90;;;;;;;;;;5015513;28;20619;-86
2024/01/20 00:22:11;;;;;;;7.90;7.10;;;;;;;;;;5015105;28;20242;-87
2024/01/20 00:24:39;;;;;;;10.17;6.67;;;;;;;;;;5015704;28;20213;-87
2024/01/20 00:27:07;;;;;;;11.87;7.40;;;;;;;;;;5014812;28;20241;-87
2024/01/20 00:29:34;;;;;;;11.43;7.67;;;;;;;;;;5015756;28;20221;-87
2024/01/20 00:32:01;;;;;;;11.63;8.70;;;;;;;;;;5014805;28;20777;-87
2024/01/20 00:34:28;;;;;;;9.00;8.10;;;;;;;;;;5015262;28;20234;-87
2024/01/20 00:36:55;;;;;;;11.30;8.77;;;;;;;;;;5014646;28;20642;-87
2024/01/20 00:39:22;;;;;;;8.77;7.87;;;;;;;;;;5014445;28;20240;-87
2024/01/20 00:41:50;;;;;;;10.07;7.67;;;;;;;;;;5014350;28;20243;-87
2024/01/20 00:44:17;;;;;;;11.47;8.03;;;;;;;;;;5015387;28;20209;-87
2024/01/20 00:46:44;;;;;;;11.37;8.77;;;;;;;;;;5014551;28;20308;-87
2024/01/20 00:49:11;;;;;;;11.40;8.30;;;;;;;;;;5015191;28;20216;-87
2024/01/20 00:51:38;;;;;;;16.47;8.00;;;;;;;;;;5014709;28;20742;-86
2024/01/20 00:54:06;;;;;;;13.00;8.37;;;;;;;;;;5014835;28;20726;-87
2024/01/20 00:56:33;;;;;;;8.93;7.40;;;;;;;;;;5014770;28;20240;-86
2024/01/20 00:59:02;;;;;;;9.73;7.60;;;;;;;;;;5014991;28;20220;-86
2024/01/20 01:01:29;;;;;;;16.60;10.07;;;;;;;;;;5014416;28;20244;-85
2024/01/20 01:03:56;;;;;;;9.27;7.97;;;;;;;;;;5015181;28;20199;-87
2024/01/20 01:06:23;;;;;;;9.33;8.37;;;;;;;;;;5014562;28;20240;-86
2024/01/20 01:08:50;;;;;;;15.73;10.50;;;;;;;;;;5014585;28;20208;-86
2024/01/20 01:11:17;;;;;;;10.20;7.43;;;;;;;;;;5014503;28;20241;-86
2024/01/20 01:13:44;;;;;;;13.13;9.03;;;;;;;;;;5014525;28;20761;-86
2024/01/20 01:16:13;;;;;;;13.10;8.73;;;;;;;;;;5014536;28;20240;-86
2024/01/20 01:18:40;;;;;;;11.47;8.33;;;;;;;;;;5014593;28;20224;-87
2024/01/20 01:21:07;;;;;;;12.73;8.37;;;;;;;;;;5014081;28;20243;-87
2024/01/20 01:23:34;;;;;;;16.47;10.30;;;;;;;;;;5014604;28;20210;-86
2024/01/20 01:26:02;;;;;;;14.23;9.10;;;;;;;;;;5013850;28;20243;-86
2024/01/20 01:28:29;;;;;;;10.63;8.30;;;;;;;;;;5014182;28;20668;-86
2024/01/20 01:30:55;;;;;;;14.47;9.97;;;;;;;;;;5013577;28;20715;-86
2024/01/20 01:33:23;;;;;;;13.33;8.67;;;;;;;;;;5014352;28;20283;-86
2024/01/20 01:35:50;;;;;;;14.40;10.63;;;;;;;;;;5013649;28;20726;-86
2024/01/20 01:38:17;;;;;;;17.73;10.23;;;;;;;;;;5013729;28;20212;-86
2024/01/20 01:40:45;;;;;;;11.67;8.23;;;;;;;;;;5013145;28;20299;-86
2024/01/20 01:43:11;;;;;;;18.37;9.77;;;;;;;;;;5014191;28;20219;-85
2024/01/20 01:45:39;;;;;;;19.90;11.33;;;;;;;;;;5013539;28;20235;-85
2024/01/20 01:48:06;;;;;;;12.20;10.93;;;;;;;;;;5013636;28;20204;-85
2024/01/20 01:50:34;;;;;;;19.47;10.40;;;;;;;;;;5012766;28;20239;-85
2024/01/20 01:53:01;;;;;;;16.27;9.57;;;;;;;;;;5013578;28;20628;-85
2024/01/20 01:55:28;;;;;;;17.63;9.67;;;;;;;;;;5013385;28;20338;-85
2024/01/20 01:57:57;;;;;;;18.23;11.43;;;;;;;;;;5013903;28;20212;-85
2024/01/20 02:00:24;;;;;;;12.33;9.23;;;;;;;;;;5012882;28;20698;-85
2024/01/20 02:02:51;;;;;;;17.40;10.67;;;;;;;;;;4995649;28;20643;-85
2024/01/20 02:05:18;;;;;;;14.93;11.40;;;;;;;;;;4995710;28;20212;-85
2024/01/20 02:07:49;;;;;;;18.80;10.27;;;;;;;;;;5009578;28;20689;-84
2024/01/20 02:10:17;;;;;;;16.57;11.23;;;;;;;;;;5012966;28;20271;-84
2024/01/20 02:12:44;;;;;;;13.30;9.43;;;;;;;;;;5013382;28;20723;-84
2024/01/20 02:15:11;;;;;;;18.07;10.43;;;;;;;;;;5012743;28;20227;-84
2024/01/20 02:17:49;;;;;;;11.37;8.53;;;;;;;;;;5013341;28;20216;-84
2024/01/20 02:20:16;;;;;;;20.00;9.70;;;;;;;;;;5012872;28;20278;-84
2024/01/20 02:22:44;;;;;;;18.97;10.20;;;;;;;;;;5013252;28;20219;-83
2024/01/20 02:25:11;;;;;;;17.93;9.00;;;;;;;;;;5012446;28;20567;-85
2024/01/20 02:27:38;;;;;;;16.70;10.93;;;;;;;;;;5013152;28;20674;-85
2024/01/20 02:30:06;;;;;;;15.07;10.53;;;;;;;;;;5012800;28;20235;-85
2024/01/20 02:32:33;;;;;;;19.80;10.37;;;;;;;;;;5013114;28;20212;-85
2024/01/20 02:35:00;;;;;;;17.73;10.07;;;;;;;;;;5013172;28;20580;-85
2024/01/20 02:37:27;;;;;;;20.53;10.93;;;;;;;;;;5012393;28;20231;-85
2024/01/20 02:39:55;;;;;;;20.40;10.30;;;;;;;;;;5013604;28;20211;-85
2024/01/20 02:42:22;;;;;;;20.80;11.13;;;;;;;;;;5012595;28;20235;-85
2024/01/20 02:44:50;;;;;;;19.20;10.40;;;;;;;;;;5021240;28;20724;-84
2024/01/20 02:47:17;;;;;;;22.23;12.10;;;;;;;;;;5013767;28;20238;-84
2024/01/20 02:49:44;;;;;;;19.43;11.40;;;;;;;;;;5013556;28;20693;-84
2024/01/20 02:52:10;;;;;;;15.17;10.73;;;;;;;;;;5012757;28;20250;-84
2024/01/20 02:54:37;;;;;;;21.73;10.53;;;;;;;;;;5012963;28;20227;-85
2024/01/20 02:57:06;;;;;;;17.47;11.00;;;;;;;;;;5012290;28;20235;-84
2024/01/20 02:59:33;;;;;;;17.13;10.57;;;;;;;;;;5012713;28;20207;-84
2024/01/20 03:02:01;;;;;;;17.07;10.20;;;;;;;;;;5013464;28;20257;-84
2024/01/20 03:04:28;;;;;;;17.20;12.23;;;;;;;;;;5016525;28;20219;-84
2024/01/20 03:06:56;;;;;;;15.83;11.17;;;;;;;;;;5016164;28;20281;-84
2024/01/20 03:09:23;;;;;;;20.47;11.93;;;;;;;;;;5016524;28;20261;-84
2024/01/20 03:11:50;;;;;;;15.10;9.63;;;;;;;;;;5016125;28;20250;-84
2024/01/20 03:14:18;;;;;;;23.10;10.70;;;;;;;;;;5016286;28;20705;-84
2024/01/20 03:16:45;;;;;;;14.10;10.47;;;;;;;;;;5016342;28;20239;-84
2024/01/20 03:19:12;;;;;;;15.80;10.23;;;;;;;;;;5016317;28;20215;-84
2024/01/20 03:21:39;;;;;;;13.87;9.17;;;;;;;;;;5018254;28;20717;-84
2024/01/20 03:24:06;;;;;;;17.40;10.67;;;;;;;;;;5018912;28;20211;-84
2024/01/20 03:26:33;;;;;;;14.00;9.30;;;;;;;;;;5017751;28;20238;-84
2024/01/20 03:29:00;;;;;;;21.07;10.87;;;;;;;;;;5016207;28;20215;-84
2024/01/20 03:31:30;;;;;;;21.10;10.77;;;;;;;;;;5015632;28;20725;-85
2024/01/20 03:33:57;;;;;;;17.17;11.20;;;;;;;;;;5015999;28;20230;-84
2024/01/20 03:36:24;;;;;;;13.47;9.53;;;;;;;;;;5015727;28;20239;-84
2024/01/20 03:38:51;;;;;;;20.50;11.20;;;;;;;;;;5015734;28;20238;-85
2024/01/20 03:41:18;;;;;;;12.60;9.23;;;;;;;;;;5014965;28;20243;-84
2024/01/20 03:43:45;;;;;;;13.40;9.57;;;;;;;;;;5015912;28;20239;-84
2024/01/20 03:46:12;;;;;;;14.50;9.60;;;;;;;;;;5015051;28;20698;-84
2024/01/20 03:48:41;;;;;;;17.37;9.70;;;;;;;;;;5015708;28;20233;-85
2024/01/20 03:51:08;;;;;;;23.10;9.63;;;;;;;;;;5014949;28;20254;-85
2024/01/20 03:53:35;;;;;;;14.17;8.57;;;;;;;;;;5015719;28;20203;-85
2024/01/20 03:56:02;;;;;;;10.57;8.03;;;;;;;;;;5014821;28;20243;-84
2024/01/20 03:58:29;;;;;;;15.20;8.37;;;;;;;;;;5015090;28;20229;-84
2024/01/20 04:00:56;;;;;;;12.90;8.63;;;;;;;;;;5015030;28;20322;-85
2024/01/20 04:03:22;;;;;;;15.10;7.97;;;;;;;;;;5014977;28;20204;-84
2024/01/20 04:05:51;;;;;;;16.73;9.23;;;;;;;;;;5014737;28;20639;-85
2024/01/20 04:08:19;;;;;;;14.37;7.97;;;;;;;;;;5014981;28;20212;-85
2024/01/20 04:10:46;;;;;;;10.83;7.53;;;;;;;;;;5014689;28;20246;-85
2024/01/20 04:13:13;;;;;;;14.53;8.13;;;;;;;;;;5014456;28;20210;-85
2024/01/20 04:15:40;;;;;;;12.60;8.50;;;;;;;;;;5014373;28;20239;-84
2024/01/20 04:18:07;;;;;;;11.33;9.00;;;;;;;;;;5014523;28;20203;-84
2024/01/20 04:20:34;;;;;;;16.40;9.47;;;;;;;;;;5014539;28;20239;-84
2024/01/20 04:23:02;;;;;;;15.53;9.43;;;;;;;;;;5014656;28;20203;-84
2024/01/20 04:25:30;;;;;;;14.17;9.13;;;;;;;;;;5014584;28;20865;-85
2024/01/20 04:27:57;;;;;;;13.27;8.87;;;;;;;;;;5014949;28;20207;-84
2024/01/20 04:30:24;;;;;;;12.70;9.17;;;;;;;;;;5015805;28;20248;-85
2024/01/20 04:32:51;;;;;;;14.27;9.47;;;;;;;;;;5015067;28;20200;-85
2024/01/20 04:35:18;;;;;;;14.70;8.00;;;;;;;;;;5014014;28;20223;-85
2024/01/20 04:37:45;;;;;;;11.33;8.60;;;;;;;;;;5014851;28;20253;-84
2024/01/20 04:40:13;;;;;;;17.27;8.70;;;;;;;;;;5014187;28;20285;-85
2024/01/20 04:42:41;;;;;;;15.10;8.17;;;;;;;;;;5014416;28;20219;-84
2024/01/20 04:45:08;;;;;;;14.67;9.03;;;;;;;;;;5014227;28;20226;-85
2024/01/20 04:47:35;;;;;;;11.43;8.43;;;;;;;;;;5014631;28;20270;-85
2024/01/20 04:50:02;;;;;;;13.30;9.97;;;;;;;;;;5014622;28;20210;-84
2024/01/20 04:52:29;;;;;;;13.47;8.27;;;;;;;;;;5014474;28;20219;-85
2024/01/20 04:54:56;;;;;;;10.83;7.80;;;;;;;;;;5014298;28;20659;-85
2024/01/20 04:57:25;;;;;;;17.57;9.10;;;;;;;;;;5013622;28;20594;-85
2024/01/20 04:59:52;;;;;;;14.33;8.10;;;;;;;;;;5014227;28;20214;-85
2024/01/20 05:02:19;;;;;;;16.23;8.60;;;;;;;;;;5013890;28;20242;-85
2024/01/20 05:04:46;;;;;;;11.43;8.67;;;;;;;;;;5014358;28;20215;-85
2024/01/20 05:07:13;;;;;;;11.60;8.47;;;;;;;;;;5013661;28;20300;-85
2024/01/20 05:09:40;;;;;;;12.50;8.93;;;;;;;;;;5013834;28;20613;-85
2024/01/20 05:12:07;;;;;;;13.60;8.90;;;;;;;;;;5013375;28;20243;-85
2024/01/20 05:14:36;;;;;;;16.40;9.37;;;;;;;;;;5013967;28;20279;-84
2024/01/20 05:17:03;;;;;;;11.53;9.03;;;;;;;;;;5013453;28;20239;-84
2024/01/20 05:19:30;;;;;;;11.47;9.33;;;;;;;;;;5014678;28;20264;-85
2024/01/20 05:21:57;;;;;;;15.20;10.17;;;;;;;;;;5016494;28;20664;-85
2024/01/20 05:24:24;;;;;;;17.80;9.20;;;;;;;;;;5015954;28;20836;-85
2024/01/20 05:26:51;;;;;;;13.90;8.13;;;;;;;;;;5013414;28;20253;-85
2024/01/20 05:29:18;;;;;;;12.63;8.60;;;;;;;;;;5013690;28;20208;-85
2024/01/20 05:31:47;;;;;;;14.07;9.17;;;;;;;;;;5018864;28;20243;-85
2024/01/20 05:34:14;;;;;;;15.30;10.67;;;;;;;;;;5014207;28;20210;-84
2024/01/20 05:36:41;;;;;;;13.53;8.80;;;;;;;;;;5014884;28;20241;-84
2024/01/20 05:39:08;;;;;;;8.77;7.53;;;;;;;;;;5014450;28;20211;-85
2024/01/20 05:41:35;;;;;;;15.83;10.27;;;;;;;;;;5013612;28;20325;-84
2024/01/20 05:44:03;;;;;;;13.57;9.03;;;;;;;;;;5013600;28;20212;-85
2024/01/20 05:46:31;;;;;;;18.63;8.80;;;;;;;;;;5012941;28;20249;-85
2024/01/20 05:48:59;;;;;;;17.67;9.27;;;;;;;;;;5013244;28;20209;-85
2024/01/20 05:51:26;;;;;;;15.10;10.17;;;;;;;;;;5012790;28;20641;-85
2024/01/20 05:53:54;;;;;;;22.80;10.40;;;;;;;;;;5013730;28;20206;-85
2024/01/20 05:56:23;;;;;;;16.33;9.93;;;;;;;;;;5012758;28;20240;-84
2024/01/20 05:58:50;;;;;;;20.20;10.57;;;;;;;;;;5012980;28;20589;-84
2024/01/20 06:01:17;;;;;;;31.00;11.30;;;;;;;;;;5012795;28;20242;-84
2024/01/20 06:03:44;;;;;;;26.30;13.30;;;;;;;;;;5013387;28;20213;-84
2024/01/20 06:06:13;;;;;;;24.77;11.93;;;;;;;;;;5012503;28;20616;-84
2024/01/20 06:08:40;;;;;;;29.20;12.70;;;;;;;;;;5012676;28;20739;-84
2024/01/20 06:11:07;;;;;;;19.67;11.27;;;;;;;;;;5012379;28;20249;-83
2024/01/20 06:13:34;;;;;;;20.53;11.73;;;;;;;;;;5013188;28;20210;-84
2024/01/20 06:16:01;;;;;;;24.73;11.63;;;;;;;;;;5012202;28;20242;-85
2024/01/20 06:18:28;;;;;;;20.77;13.10;;;;;;;;;;5012801;28;20267;-84
2024/01/20 06:20:56;;;;;;;25.47;12.67;;;;;;;;;;5012681;28;20239;-84
2024/01/20 06:23:24;;;;;;;21.30;12.50;;;;;;;;;;5013278;28;20218;-85
2024/01/20 06:25:51;;;;;;;40.70;11.87;;;;;;;;;;5012338;28;20711;-84
2024/01/20 06:28:18;;;;;;;19.60;12.13;;;;;;;;;;5013265;28;20209;-85
2024/01/20 06:30:46;;;;;;;27.20;13.97;;;;;;;;;;5012410;28;20242;-84
2024/01/20 06:33:13;;;;;;;24.40;12.53;;;;;;;;;;5013042;28;20213;-85
2024/01/20 06:35:40;;;;;;;25.70;13.07;;;;;;;;;;5012308;28;20238;-85
2024/01/20 06:38:07;;;;;;;26.10;12.60;;;;;;;;;;5018242;28;20233;-84
2024/01/20 06:40:36;;;;;;;20.03;11.17;;;;;;;;;;5018989;28;20239;-84
2024/01/20 06:43:04;;;;;;;20.80;11.47;;;;;;;;;;5019722;28;20188;-85
2024/01/20 06:45:33;;;;;;;21.70;9.83;;;;;;;;;;5019290;28;20257;-85
2024/01/20 06:48:01;;;;;;;17.53;10.63;;;;;;;;;;5019324;28;20236;-84
2024/01/20 06:50:28;;;;;;;26.20;12.00;;;;;;;;;;5018711;28;20689;-84
2024/01/20 06:52:55;;;;;;;21.63;12.87;;;;;;;;;;5018831;28;20207;-84
2024/01/20 06:55:22;;;;;;;23.47;11.13;;;;;;;;;;5018935;28;20695;-84
2024/01/20 06:57:50;;;;;;;33.43;12.43;;;;;;;;;;5019152;28;20211;-84
2024/01/20 07:00:17;;;;;;;27.37;11.83;;;;;;;;;;5018813;28;20234;-84
2024/01/20 07:02:44;;;;;;;31.70;13.40;;;;;;;;;;5018905;28;20204;-85
2024/01/20 07:05:12;;;;;;;26.00;12.20;;;;;;;;;;5018945;28;20210;-85
2024/01/20 07:07:39;;;;;;;31.47;14.73;;;;;;;;;;5017860;28;20206;-84
2024/01/20 07:10:08;;;;;;;28.00;14.27;;;;;;;;;;5017886;28;20740;-84
2024/01/20 07:12:35;;;;;;;32.47;12.60;;;;;;;;;;5018592;28;20206;-83
2024/01/20 07:15:05;;;;;;;22.10;12.97;;;;;;;;;;5018460;28;20302;-81
2024/01/20 07:17:32;;;;;;;21.80;11.23;;;;;;;;;;5018625;28;20641;-83
2024/01/20 07:19:59;;;;;;;32.40;13.00;;;;;;;;;;5018189;28;20572;-83
2024/01/20 07:22:26;;;;;;;18.20;11.13;;;;;;;;;;5018272;28;20243;-84
2024/01/20 07:24:54;;;;;;;25.63;13.13;;;;;;;;;;5018929;28;20206;-84
2024/01/20 07:27:21;;;;;;;26.83;13.27;;;;;;;;;;5017898;28;20237;-84
2024/01/20 07:29:48;;;;;;;20.27;11.27;;;;;;;;;;5018615;28;20215;-82
2024/01/20 07:32:16;;;;;;;17.83;11.03;;;;;;;;;;5018019;28;20242;-83
2024/01/20 07:34:43;;;;;;;16.10;9.27;;;;;;;;;;5018658;28;20561;-83
2024/01/20 07:37:11;;;;;;;15.90;12.23;;;;;;;;;;5018048;28;20585;-82
2024/01/20 07:39:38;;;;;;;21.00;11.33;;;;;;;;;;5018087;28;20580;-82
2024/01/20 07:42:05;;;;;;;22.10;10.50;;;;;;;;;;5017416;28;20242;-83
2024/01/20 07:44:32;;;;;;;45.20;13.80;;;;;;;;;;5018230;28;20214;-83
2024/01/20 07:46:59;;;;;;;22.50;12.40;;;;;;;;;;5017822;28;20645;-83
2024/01/20 07:49:28;;;;;;;30.43;12.00;;;;;;;;;;5014590;28;20230;-84
2024/01/20 07:51:55;;;;;;;48.73;18.50;;;;;;;;;;5014679;28;20239;-83
2024/01/20 07:54:22;;;;;;;46.93;18.03;;;;;;;;;;5015344;28;20693;-82
2024/01/20 07:56:49;;;;;;;25.80;15.50;;;;;;;;;;5015860;28;20249;-84
2024/01/20 07:59:16;;;;;;;34.37;13.63;;;;;;;;;;5015865;28;20207;-83
2024/01/20 08:01:43;;;;;;;30.57;12.83;;;;;;;;;;5015037;28;20243;-84
2024/01/20 08:04:10;;;;;;;18.97;8.57;;;;;;;;;;5015350;28;20208;-82
2024/01/20 08:06:38;;;;;;;11.03;9.90;;;;;;;;;;5014382;28;20724;-82
2024/01/20 08:09:06;;;;;;;24.17;12.93;;;;;;;;;;5015181;28;20213;-84
2024/01/20 08:11:33;;;;;;;32.07;12.50;;;;;;;;;;5014365;28;20293;-82
2024/01/20 08:14:00;;;;;;;28.80;13.93;;;;;;;;;;5014905;28;20199;-83
2024/01/20 08:16:28;;;;;;;24.97;10.77;;;;;;;;;;5014047;28;20242;-83
2024/01/20 08:18:56;;;;;;;23.73;11.87;;;;;;;;;;5014482;28;20646;-84
2024/01/20 08:21:23;;;;;;;16.67;11.07;;;;;;;;;;5014341;28;20259;-82
2024/01/20 08:23:51;;;;;;;28.27;12.63;;;;;;;;;;5014703;28;20211;-83
2024/01/20 08:26:19;;;;;;;21.97;11.57;;;;;;;;;;5014210;28;20305;-83
2024/01/20 08:28:46;;;;;;;19.97;12.10;;;;;;;;;;5014585;28;20303;-84
2024/01/20 08:31:13;;;;;;;34.07;13.37;;;;;;;;;;5014063;28;20262;-82
2024/01/20 08:33:42;;;;;;;24.20;12.77;;;;;;;;;;5015702;28;20239;-82
2024/01/20 08:36:09;;;;;;;36.53;16.17;;;;;;;;;;5013782;28;20232;-83
2024/01/20 08:38:37;;;;;;;31.90;17.00;;;;;;;;;;5014554;28;20217;-83
2024/01/20 08:41:10;;;;;;;31.87;15.80;;;;;;;;;;5014149;28;20293;-81
2024/01/20 08:43:39;;;;;;;37.90;15.20;;;;;;;;;;5014649;28;20199;-83
2024/01/20 08:46:06;;;;;;;19.00;11.37;;;;;;;;;;5013913;28;20243;-84
2024/01/20 08:48:33;;;;;;;27.80;13.33;;;;;;;;;;5014643;28;20210;-84
2024/01/20 08:51:00;;;;;;;24.57;12.20;;;;;;;;;;5013417;28;20242;-84
2024/01/20 08:53:28;;;;;;;22.77;12.30;;;;;;;;;;5013907;28;20211;-83
2024/01/20 08:55:55;;;;;;;25.37;12.63;;;;;;;;;;5014242;28;20725;-83
2024/01/20 08:58:23;;;;;;;23.57;10.50;;;;;;;;;;5013925;28;20306;-85
2024/01/20 09:00:50;;;;;;;21.93;12.77;;;;;;;;;;5013141;28;20259;-82
2024/01/20 09:03:18;;;;;;;22.77;10.87;;;;;;;;;;5013416;28;20254;-83
2024/01/20 09:05:45;;;;;;;31.63;12.83;;;;;;;;;;5013331;28;20243;-83
2024/01/20 09:08:12;;;;;;;21.50;11.53;;;;;;;;;;5015502;28;20219;-83
2024/01/20 09:10:39;;;;;;;26.13;11.97;;;;;;;;;;5012810;28;20322;-83
2024/01/20 09:13:07;;;;;;;17.37;10.30;;;;;;;;;;5014085;28;20262;-82
2024/01/20 09:15:35;;;;;;;17.87;10.67;;;;;;;;;;5013992;28;20511;-83
2024/01/20 09:18:02;;;;;;;24.63;12.30;;;;;;;;;;5013091;28;20210;-82
2024/01/20 09:20:29;;;;;;;27.33;11.43;;;;;;;;;;5012911;28;20234;-82
2024/01/20 09:22:56;;;;;;;26.17;10.97;;;;;;;;;;5013473;28;20614;-83
2024/01/20 09:25:23;;;;;;;20.93;12.03;;;;;;;;;;5012752;28;20247;-83
2024/01/20 09:27:50;;;;;;;25.27;12.33;;;;;;;;;;5012843;28;20230;-82
2024/01/20 09:30:17;;;;;;;37.13;10.60;;;;;;;;;;5012573;28;20305;-82
2024/01/20 09:32:46;;;;;;;22.93;11.20;;;;;;;;;;5012975;28;20203;-82
2024/01/20 09:35:13;;;;;;;19.60;12.07;;;;;;;;;;5012214;28;20253;-82
2024/01/20 09:37:40;;;;;;;21.90;10.73;;;;;;;;;;5012714;28;20208;-82
2024/01/20 09:40:08;;;;;;;30.43;12.50;;;;;;;;;;5012128;28;20740;-82
2024/01/20 09:42:36;;;;;;;19.70;9.80;;;;;;;;;;5012760;28;20223;-82
2024/01/20 09:45:03;;;;;;;16.23;9.10;;;;;;;;;;5012534;28;20624;-82
2024/01/20 09:47:30;;;;;;;17.47;10.23;;;;;;;;;;5012585;28;20423;-82
2024/01/20 09:49:58;;;;;;;14.67;9.80;;;;;;;;;;5012502;28;20699;-82
2024/01/20 09:52:27;;;;;;;22.37;11.67;;;;;;;;;;5012104;28;20235;-83
2024/01/20 09:55:02;;;;;;;13.87;9.73;;;;;;;;;;5012791;28;20253;-83
2024/01/20 09:57:30;;;;;;;14.97;8.73;;;;;;;;;;5012265;28;20219;-83
2024/01/20 09:59:58;;;;;;;28.50;11.27;;;;;;;;;;5012284;28;20203;-82
2024/01/20 10:02:26;;;;;;;17.27;8.97;;;;;;;;;;5012150;28;20231;-83
2024/01/20 10:04:59;;;;;;;6.27;5.77;;;;;;;;;;5012567;28;20212;-83
2024/01/20 10:07:30;;;;;;;20.03;10.67;;;;;;;;;;5011492;28;20260;-84
2024/01/20 10:09:57;;;;;;;7.30;5.33;;;;;;;;;;5011962;28;20208;-83
2024/01/20 10:12:24;;;;;;;11.73;8.57;;;;;;;;;;5010853;28;20240;-84
2024/01/20 10:14:52;;;;;;;16.60;9.00;;;;;;;;;;5012392;28;20213;-83
2024/01/20 10:17:19;;;;;;;12.27;9.63;;;;;;;;;;5011541;28;20320;-84
2024/01/20 10:19:46;;;;;;;20.80;11.03;;;;;;;;;;5012504;28;20634;-83
2024/01/20 10:22:13;;;;;;;21.07;10.17;;;;;;;;;;5012058;28;20691;-83
2024/01/20 10:24:48;;;;;;;12.03;7.40;;;;;;;;;;5012754;28;20262;-83
2024/01/20 10:27:18;;;;;;;19.87;9.40;;;;;;;;;;5011737;28;20294;-83
2024/01/20 10:29:46;;;;;;;12.00;7.10;;;;;;;;;;5012337;28;20246;-84
2024/01/20 10:32:13;;;;;;;15.57;10.87;;;;;;;;;;5011614;28;20664;-83
2024/01/20 10:34:40;;;;;;;24.27;13.27;;;;;;;;;;5012145;28;20254;-84
2024/01/20 10:37:10;;;;;;;22.17;12.20;;;;;;;;;;5011792;28;20248;-83
2024/01/20 10:39:41;;;;;;;29.60;12.27;;;;;;;;;;5011690;28;20726;-84
2024/01/20 10:42:10;;;;;;;19.23;12.17;;;;;;;;;;5011698;28;20360;-84
2024/01/20 10:44:39;;;;;;;19.63;11.93;;;;;;;;;;5011961;28;20251;-84
2024/01/20 10:47:10;;;;;;;17.33;11.30;;;;;;;;;;5011878;28;20267;-83
2024/01/20 10:49:38;;;;;;;14.67;9.37;;;;;;;;;;5011881;28;20195;-83
2024/01/20 10:52:05;;;;;;;16.43;10.43;;;;;;;;;;5011610;28;20246;-83
2024/01/20 10:54:32;;;;;;;13.50;9.77;;;;;;;;;;5012261;28;20221;-83
2024/01/20 10:56:59;;;;;;;18.17;11.00;;;;;;;;;;5011743;28;20237;-84
2024/01/20 10:59:28;;;;;;;19.13;11.57;;;;;;;;;;5017846;28;20296;-83
2024/01/20 11:01:56;;;;;;;18.83;11.77;;;;;;;;;;5011744;28;20233;-83
2024/01/20 11:04:23;;;;;;;20.80;10.53;;;;;;;;;;5012207;28;20198;-84
2024/01/20 11:06:53;;;;;;;14.70;10.17;;;;;;;;;;5011501;28;20643;-85
2024/01/20 11:09:21;;;;;;;18.00;9.17;;;;;;;;;;5011634;28;20312;-83
2024/01/20 11:12:00;;;;;;;16.97;10.03;;;;;;;;;;5011511;28;20590;-84
2024/01/20 11:14:30;;;;;;;22.37;10.00;;;;;;;;;;5012059;28;20696;-83
2024/01/20 11:16:57;;;;;;;17.73;10.37;;;;;;;;;;5011163;28;20238;-85
2024/01/20 11:19:24;;;;;;;19.77;11.60;;;;;;;;;;5011441;28;20204;-83
2024/01/20 11:21:51;;;;;;;25.57;11.93;;;;;;;;;;5011136;28;20276;-83
2024/01/20 11:24:18;;;;;;;24.93;11.83;;;;;;;;;;5014594;28;20203;-84
2024/01/20 11:26:45;;;;;;;20.60;11.37;;;;;;;;;;5014991;28;20314;-85
2024/01/20 11:29:12;;;;;;;21.87;11.07;;;;;;;;;;5015318;28;20682;-83
2024/01/20 11:31:48;;;;;;;17.73;9.70;;;;;;;;;;5014654;28;20239;-84
2024/01/20 11:34:15;;;;;;;25.40;12.63;;;;;;;;;;5015418;28;20311;-83
2024/01/20 11:36:42;;;;;;;25.30;13.50;;;;;;;;;;5014819;28;20713;-84
2024/01/20 11:39:09;;;;;;;20.53;9.57;;;;;;;;;;5015129;28;20208;-84
2024/01/20 11:41:36;;;;;;;18.27;11.47;;;;;;;;;;5014419;28;20239;-83
2024/01/20 11:44:03;;;;;;;25.53;12.00;;;;;;;;;;5015250;28;20218;-83
2024/01/20 11:46:31;;;;;;;20.57;11.27;;;;;;;;;;5014509;28;20710;-83
2024/01/20 11:48:59;;;;;;;18.50;10.87;;;;;;;;;;5014811;28;20215;-83
2024/01/20 11:51:26;;;;;;;17.13;11.07;;;;;;;;;;5014507;28;20243;-84
2024/01/20 11:53:53;;;;;;;17.70;10.73;;;;;;;;;;5014866;28;20212;-83
2024/01/20 11:56:20;;;;;;;17.67;9.77;;;;;;;;;;5014490;28;20235;-82
2024/01/20 11:58:47;;;;;;;18.30;12.10;;;;;;;;;;5014475;28;20218;-83
2024/01/20 12:01:15;;;;;;;24.97;12.13;;;;;;;;;;5014643;28;20297;-83
2024/01/20 12:03:42;;;;;;;22.30;11.33;;;;;;;;;;5015931;28;20701;-84
2024/01/20 12:06:10;;;;;;;18.97;11.07;;;;;;;;;;5015562;28;20239;-84
2024/01/20 12:08:40;;;;;;;27.07;12.63;;;;;;;;;;5014866;28;20207;-84
2024/01/20 12:11:07;;;;;;;19.63;10.87;;;;;;;;;;5014410;28;20246;-83
2024/01/20 12:13:35;;;;;;;22.13;11.27;;;;;;;;;;5014879;28;20319;-83
2024/01/20 12:16:03;;;;;;;21.30;12.23;;;;;;;;;;5014147;28;20235;-84
2024/01/20 12:18:31;;;;;;;32.07;11.93;;;;;;;;;;5014313;28;20286;-82
2024/01/20 12:20:59;;;;;;;19.87;10.43;;;;;;;;;;5013796;28;20235;-84
2024/01/20 12:23:37;;;;;;;24.27;11.70;;;;;;;;;;5014431;28;20203;-84
2024/01/20 12:26:12;;;;;;;26.37;11.73;;;;;;;;;;5013964;28;20662;-84
2024/01/20 12:28:39;;;;;;;23.97;12.30;;;;;;;;;;5014310;28;20610;-84
2024/01/20 12:31:06;;;;;;;22.37;13.13;;;;;;;;;;5013661;28;20243;-84
2024/01/20 12:33:33;;;;;;;21.50;11.37;;;;;;;;;;5014221;28;20211;-84
2024/01/20 12:36:01;;;;;;;21.17;11.00;;;;;;;;;;5013070;28;20239;-84
2024/01/20 12:38:30;;;;;;;24.20;12.50;;;;;;;;;;5013709;28;20220;-84
2024/01/20 12:40:57;;;;;;;25.53;13.30;;;;;;;;;;5013577;28;20242;-83
2024/01/20 12:43:24;;;;;;;22.13;11.13;;;;;;;;;;5014346;28;20199;-84
2024/01/20 12:45:51;;;;;;;25.57;14.03;;;;;;;;;;5013414;28;20736;-84
2024/01/20 12:48:18;;;;;;;26.47;11.73;;;;;;;;;;5013574;28;20724;-84
2024/01/20 12:50:45;;;;;;;18.00;10.63;;;;;;;;;;5013420;28;20243;-84
2024/01/20 12:53:12;;;;;;;19.63;9.87;;;;;;;;;;5013801;28;20619;-84
2024/01/20 12:55:41;;;;;;;17.43;8.53;;;;;;;;;;5013507;28;20258;-85
2024/01/20 12:58:08;;;;;;;18.67;10.73;;;;;;;;;;5013436;28;20227;-84
2024/01/20 13:00:35;;;;;;;26.00;13.67;;;;;;;;;;5012937;28;20241;-83
2024/01/20 13:03:03;;;;;;;23.80;10.90;;;;;;;;;;5013808;28;20265;-84
2024/01/20 13:05:30;;;;;;;16.50;11.50;;;;;;;;;;5013361;28;20358;-83
2024/01/20 13:07:57;;;;;;;19.73;10.70;;;;;;;;;;5013737;28;20199;-84
2024/01/20 13:10:24;;;;;;;21.80;12.87;;;;;;;;;;5013315;28;20326;-83
2024/01/20 13:12:53;;;;;;;17.60;10.03;;;;;;;;;;5013487;28;20794;-84
2024/01/20 13:15:23;;;;;;;26.07;10.87;;;;;;;;;;5012748;28;20207;-83
2024/01/20 13:17:50;;;;;;;29.30;10.60;;;;;;;;;;5013227;28;20288;-84
2024/01/20 13:20:18;;;;;;;16.13;9.67;;;;;;;;;;5012938;28;20227;-84
2024/01/20 13:22:45;;;;;;;19.70;10.03;;;;;;;;;;5013539;28;20208;-83
2024/01/20 13:25:12;;;;;;;22.90;11.27;;;;;;;;;;5012858;28;20196;-83
2024/01/20 13:27:39;;;;;;;18.07;10.47;;;;;;;;;;5012992;28;20554;-83
2024/01/20 13:30:08;;;;;;;22.80;10.57;;;;;;;;;;5012888;28;20673;-84
2024/01/20 13:32:36;;;;;;;18.53;9.60;;;;;;;;;;5013335;28;20292;-84
2024/01/20 13:35:04;;;;;;;21.27;11.60;;;;;;;;;;5012973;28;20239;-83
2024/01/20 13:37:31;;;;;;;18.50;11.03;;;;;;;;;;5012860;28;20220;-84
2024/01/20 13:39:58;;;;;;;20.33;10.67;;;;;;;;;;5013109;28;20208;-84
2024/01/20 13:42:25;;;;;;;17.97;10.90;;;;;;;;;;5012295;28;20240;-83
2024/01/20 13:44:52;;;;;;;21.80;12.50;;;;;;;;;;5012957;28;20209;-84
2024/01/20 13:47:20;;;;;;;16.20;9.63;;;;;;;;;;5011405;28;20232;-83
2024/01/20 13:49:47;;;;;;;24.37;12.47;;;;;;;;;;5012716;28;20207;-83
2024/01/20 13:52:15;;;;;;;26.53;12.63;;;;;;;;;;5012309;28;20242;-83
2024/01/20 13:54:43;;;;;;;17.20;10.00;;;;;;;;;;5012818;28;20203;-84
2024/01/20 13:57:10;;;;;;;24.40;11.73;;;;;;;;;;5012437;28;20318;-84
2024/01/20 13:59:38;;;;;;;24.33;11.50;;;;;;;;;;5012813;28;20258;-84
2024/01/20 14:02:08;;;;;;;22.10;11.10;;;;;;;;;;5011854;28;20249;-83
2024/01/20 14:04:37;;;;;;;24.53;12.57;;;;;;;;;;5012793;28;20287;-83
2024/01/20 14:07:06;;;;;;;23.00;10.90;;;;;;;;;;5012018;28;20237;-83
2024/01/20 14:09:33;;;;;;;29.43;12.40;;;;;;;;;;5012364;28;20307;-83
2024/01/20 14:12:00;;;;;;;18.10;11.40;;;;;;;;;;5011943;28;20732;-84
2024/01/20 14:14:27;;;;;;;24.43;11.57;;;;;;;;;;5012621;28;20262;-84
2024/01/20 14:16:59;;;;;;;19.10;10.60;;;;;;;;;;5011736;28;20289;-83
2024/01/20 14:19:27;;;;;;;19.30;11.00;;;;;;;;;;5012342;28;20564;-84
2024/01/20 14:21:56;;;;;;;19.13;12.30;;;;;;;;;;5011815;28;20322;-83
2024/01/20 14:24:24;;;;;;;19.20;11.93;;;;;;;;;;5012525;28;20292;-83